x

9431647 - Port Orford, Or (poro3) Weather Station

6:30pm - Fri 24th Mar 2017 All times are PDT. -7 hours from GMT.

  • Wind
    21mph, 24mph gusts
  • Sea Temp 53°f
  • Air Temp 52°f
  • Sea Pressure 1018.6mb
  • 9431647 - Port Orford, Or
  • 9431647 - Port Orford, Or

More Historic Weather Station data

Upgrade to MSW Pro to gain access to the past 30 days of data for over 8000 Wavebouys and Weather Stations around the globe.

Join Pro

Comparision Forecast

View Surf forecast
   
Fri 03/24 6:30pm 21 24 mph 1018.6mb 53f 52f
6:24pm 20 23 mph 1018.6mb 53f 52f
6:18pm 22 25 mph 1018.5mb 53f 52f
6:12pm 23 26 mph 1018.5mb 53f 52f
6:06pm 21 24 mph 1018.4mb 53f 52f
6:00pm 20 22 mph 1018.4mb 53f 52f
5:54pm 21 23 mph 1018.4mb 53f 52f
5:48pm 21 23 mph 1018.3mb 53f 52f
5:42pm 20 22 mph 1018.3mb 53f 52f
5:36pm 21 22 mph 1018.2mb 53f 52f
5:30pm 21 23 mph 1018.2mb 53f 52f
5:24pm 21 23 mph 1018.2mb 53f 52f
5:18pm 20 24 mph 1018.2mb 53f 52f
5:12pm 20 23 mph 1018.1mb 53f 52f
5:06pm 21 24 mph 1018.1mb 53f 52f
5:00pm 20 23 mph 1018mb 53f 52f
4:54pm 20 22 mph 1017.9mb 53f 52f
4:48pm 20 23 mph 1017.9mb 53f 52f
4:42pm 21 23 mph 1017.8mb 53f 52f
4:36pm 18 24 mph 1017.7mb 53f 52f
4:30pm 21 24 mph 1017.7mb 53f 52f
4:24pm 20 24 mph 1017.7mb 53f 52f
4:18pm 20 23 mph 1017.6mb 53f 52f
4:12pm 23 26 mph 1017.6mb 53f 52f
4:06pm 22 25 mph 1017.7mb 53f 52f
4:00pm 18 25 mph 1017.7mb 53f 52f
3:54pm 18 25 mph 1017.6mb 53f 52f
3:48pm 21 28 mph 1017.5mb 53f 52f
3:42pm 22 26 mph 1017.5mb 53f 52f
3:36pm 22 26 mph 1017.4mb 53f 52f
3:30pm 21 25 mph 1017.3mb 53f 51f
3:24pm 22 25 mph 1017.3mb 53f 51f
3:18pm 21 24 mph 1017.4mb 53f 51f
3:12pm 23 28 mph 1017.4mb 53f 51f
3:06pm 24 28 mph 1017.4mb 53f 51f
3:00pm 23 26 mph 1017.4mb 53f 51f
2:54pm 24 30 mph 1017.4mb 53f 51f
2:48pm 23 29 mph 1017.5mb 53f 51f
2:42pm 24 32 mph 1017.4mb 53f 51f
2:36pm 23 31 mph 1017.3mb 53f 51f
2:30pm 28 31 mph 1017.3mb 53f 51f
2:24pm 22 28 mph 1017.3mb 53f 50f
2:18pm 24 30 mph 1017.1mb 53f 50f
2:12pm 22 29 mph 1017mb 52f 50f
2:06pm 24 29 mph 1016.9mb 52f 51f
2:00pm 26 30 mph 1016.8mb 52f 51f
1:54pm 24 31 mph 1016.8mb 52f 51f
1:48pm 21 31 mph 1016.8mb 52f 50f
1:42pm 24 30 mph 1016.8mb 52f 50f
1:36pm 25 32 mph 1016.8mb 52f 50f
1:30pm 26 31 mph 1016.7mb 52f 50f
1:24pm 23 32 mph 1016.7mb 52f 50f
1:18pm 26 30 mph 1016.6mb 52f 50f
1:12pm 28 33 mph 1016.5mb 52f 50f
1:06pm 24 31 mph 1016.6mb 52f 50f
1:00pm 26 30 mph 1016.5mb 52f 50f
12:54pm 26 30 mph 1016.4mb 52f 50f
12:48pm 25 31 mph 1016.3mb 52f 50f
12:42pm 17 25 mph 1016.2mb 52f 50f
12:36pm 17 21 mph 1016.2mb 52f 50f
12:30pm 15 21 mph 1016.3mb 52f 49f
12:24pm 15 18 mph 1016.3mb 52f 49f
12:18pm 14 20 mph 1016.3mb 52f 49f
12:12pm 16 20 mph 1016.3mb 52f 49f
12:06pm 18 23 mph 1016.2mb 52f 49f
12:00pm 16 20 mph 1016.1mb 52f 49f
11:54am 15 18 mph 1016mb 52f 49f
11:48am 15 17 mph 1016mb 52f 49f
11:42am 18 21 mph 1016mb 52f 49f
11:36am 17 20 mph 1015.8mb 52f 49f
11:30am 17 23 mph 1015.7mb 52f 48f
11:24am 22 25 mph 1015.6mb 52f 49f
11:18am 17 22 mph 1015.6mb 52f 50f
10:54am 18 21 mph 1015mb 52f 50f
10:48am 18 25 mph 1014.9mb 52f 50f
10:42am 17 21 mph 1014.8mb 52f 51f
10:36am 18 22 mph 1014.7mb 52f 50f
10:30am 16 20 mph 1014.5mb 52f 50f
10:24am 14 20 mph 1014.5mb 52f 50f
10:18am 15 18 mph 1014.4mb 52f 50f
10:12am 14 17 mph 1014.3mb 52f 50f
10:06am 13 17 mph 1014.2mb 52f 50f
10:00am 14 16 mph 1014mb 52f 49f
9:54am 13 18 mph 1013.9mb 52f 49f
9:48am 13 16 mph 1013.9mb 52f 49f
9:42am 9 14 mph 1013.9mb 52f 49f
9:36am 9 14 mph 1013.8mb 52f 49f
9:30am 10 20 mph 1013.9mb 52f 49f
9:24am 10 15 mph 1013.9mb 52f 49f
9:18am 10 17 mph 1013.8mb 52f 48f
9:12am 14 18 mph 1013.5mb 52f 48f
9:06am 10 14 mph 1013.6mb 52f 48f
9:00am 10 15 mph 1013.6mb 52f 47f
8:54am 13 14 mph 1013.5mb 52f 47f
8:48am 13 15 mph 1013.5mb 52f 48f
8:42am 11 13 mph 1013.4mb 52f 48f
8:36am 11 16 mph 1013.3mb 52f 47f
8:30am 11 14 mph 1013.3mb 52f 47f
8:24am 9 14 mph 1013.3mb 52f 47f
8:18am 13 15 mph 1013.2mb 52f 47f
8:12am 13 15 mph 1013.2mb 52f 47f
8:06am 10 13 mph 1013.5mb 52f 47f
8:00am 11 14 mph 1013.4mb 52f 47f
7:54am 10 14 mph 1013.1mb 52f 48f
7:48am 13 15 mph 1013.2mb 52f 47f
7:42am 14 17 mph 1013.1mb 52f 47f
7:36am 17 20 mph 1013mb 52f 47f
7:30am 18 21 mph 1012.8mb 52f 47f
7:24am 14 17 mph 1012.8mb 52f 48f
7:18am 14 17 mph 1012.9mb 52f 48f
7:12am 15 20 mph 1012.8mb 52f 48f
7:06am 15 18 mph 1012.7mb 52f 48f
7:00am 15 20 mph 1012.6mb 52f 47f
6:54am 16 18 mph 1012.5mb 52f 48f
6:48am 14 17 mph 1012.5mb 52f 48f
6:42am 14 15 mph 1012.5mb 52f 48f
6:36am 14 16 mph 1012.4mb 52f 48f
6:30am 14 17 mph 1012.4mb 52f 48f
6:24am 13 16 mph 1012.4mb 52f 48f
6:18am 14 16 mph 1012.4mb 52f 48f
6:12am 13 15 mph 1012.3mb 52f 48f
6:06am 13 15 mph 1012.3mb 52f 47f
6:00am 13 16 mph - 52f 48f
5:54am 14 16 mph - 52f 48f
5:48am 13 16 mph 1012.2mb 52f 48f
5:42am 14 16 mph 1012.2mb 52f 48f
5:36am 16 18 mph 1012.2mb 52f 48f
5:30am 16 18 mph 1012.1mb 52f 48f
5:24am 16 21 mph 1012mb 52f 49f
5:18am 17 21 mph 1011.9mb 52f 49f
5:12am 20 24 mph 1011.8mb 52f 49f
5:06am 22 24 mph 1011.7mb 52f 49f
5:00am 23 25 mph 1011.6mb 52f 49f
4:54am 25 29 mph 1011.5mb 52f 49f
4:48am 26 34 mph 1011.5mb 52f -
4:42am 28 33 mph 1011.4mb 52f -
4:36am 28 32 mph 1011.4mb 52f -
4:30am 26 32 mph 1011.4mb 52f 51f
4:24am 26 31 mph 1011.3mb 52f 51f
4:18am 29 38 mph 1011.3mb 52f 51f
4:12am 37 41 mph 1011mb 52f 51f
4:06am 37 44 mph 1010.9mb 52f 51f
4:00am 34 45 mph 1011.1mb 52f 51f
3:54am 36 43 mph 1011mb 52f 51f
3:48am 36 43 mph 1010.9mb 52f 51f
3:42am 34 43 mph 1010.7mb 52f 51f
3:36am 36 44 mph 1010.7mb 52f 51f
3:30am 37 44 mph 1010.6mb 52f 52f
3:24am 36 43 mph 1010.4mb 52f 52f
3:18am 36 47 mph 1010.3mb 52f 52f
3:12am 34 44 mph 1010.2mb 52f 52f
3:06am 37 47 mph 1010.2mb 52f 52f
3:00am 38 46 mph 1010.1mb 52f 52f
2:54am 37 47 mph 1010.2mb 52f 53f
2:48am 36 45 mph 1010.1mb 52f 53f
2:42am 36 41 mph 1010.2mb 52f 53f
2:36am 34 43 mph 1010.3mb 52f 52f
2:30am 36 45 mph 1010.2mb 52f 53f
2:24am 34 45 mph 1010.4mb 52f 53f
2:18am 40 46 mph 1010.3mb 52f 53f
2:12am 34 45 mph 1010.1mb 52f 53f
2:06am 37 45 mph 1010mb 52f 53f
2:00am 39 46 mph 1010mb 52f 53f
1:54am 41 53 mph 1010mb 52f 53f
1:48am 40 49 mph 1009.8mb 52f 53f
1:42am 39 48 mph 1009.8mb 52f 53f
1:36am 40 51 mph 1009.7mb 52f 53f
1:30am 39 46 mph 1009.9mb 52f 53f
1:24am 37 51 mph 1010mb 52f 53f
1:18am 39 46 mph 1009.9mb 52f 53f
1:12am 36 51 mph 1010.1mb 52f 53f
1:06am 39 52 mph 1010mb 52f 53f
1:00am 33 41 mph 1010.1mb 52f 53f
12:54am 32 43 mph 1010.4mb 52f 53f
12:48am 38 46 mph 1010.4mb 52f 53f
12:42am 33 41 mph 1010.5mb 52f 53f
12:36am 36 40 mph 1010.5mb 52f 52f
12:30am 33 40 mph 1010.7mb 52f 52f
12:24am 37 46 mph 1010.7mb 52f 52f
12:18am 32 41 mph 1010.8mb 52f 53f
12:12am 34 45 mph 1010.6mb 52f 53f
12:06am 34 46 mph 1010.6mb 52f 53f
12:00am 33 39 mph 1010.8mb 52f 53f
Thu 03/23 11:54pm 33 41 mph 1010.9mb 52f 53f
11:48pm 34 40 mph 1011mb 52f 53f
11:42pm 33 39 mph 1011mb 52f 52f
11:36pm 31 43 mph 1011.2mb 52f 52f
11:30pm 31 39 mph 1011.4mb 52f 52f
11:24pm 32 41 mph 1011.6mb 52f 52f
11:18pm 32 39 mph 1011.6mb 52f 52f
11:12pm 31 40 mph 1011.6mb 52f 52f
11:06pm 32 39 mph 1011.7mb 52f 52f
11:00pm 33 43 mph 1011.6mb 52f 52f
10:54pm 36 45 mph 1011.5mb 52f 52f
10:48pm 33 40 mph 1011.5mb 52f -
10:42pm 30 43 mph 1011.5mb 52f -
10:36pm 32 38 mph 1011.4mb 52f -
10:30pm 32 40 mph 1011.4mb 52f 53f
10:24pm 36 45 mph 1011.4mb 52f 53f
10:18pm 33 45 mph 1011.4mb 52f 53f
10:12pm 33 40 mph 1011.4mb 52f 53f
10:06pm 31 45 mph 1011.4mb 52f 53f
10:00pm 38 46 mph 1011.4mb 52f 53f
9:54pm 36 46 mph 1011.4mb 52f 53f
9:48pm 32 52 mph 1011.5mb 52f 53f
9:42pm 33 39 mph 1011.4mb 52f 53f
9:36pm 39 46 mph 1011.4mb 52f 53f
9:30pm 40 49 mph 1011.3mb 52f 53f
9:24pm 37 48 mph 1011.4mb 52f 53f
9:18pm 38 47 mph 1011.4mb 52f 54f
9:12pm 34 45 mph 1011.5mb 52f 53f
9:06pm 37 46 mph 1011.3mb 52f 53f
9:00pm 34 45 mph 1011.4mb 52f 53f
8:54pm 36 49 mph 1011.4mb 52f 53f
8:48pm 31 41 mph 1011.5mb 52f 53f
8:42pm 32 37 mph 1011.5mb 52f 52f
8:36pm 34 40 mph 1011.5mb 52f 52f
8:30pm 31 38 mph 1011.6mb 52f 52f
8:24pm 34 39 mph 1011.6mb 52f 51f
8:18pm 32 40 mph 1011.8mb 52f 52f
8:12pm 36 41 mph 1011.7mb 52f 52f
8:06pm 33 40 mph 1011.8mb 52f 51f
8:00pm 33 47 mph 1012mb 52f 51f
7:54pm 36 45 mph 1012mb 52f 51f
7:48pm 37 45 mph 1012.1mb 52f 51f
7:42pm 32 44 mph 1012.3mb 52f 51f
7:36pm 36 43 mph 1012.4mb 52f 50f
7:30pm 36 45 mph 1012.3mb 52f 50f
7:24pm 37 44 mph 1012.3mb 52f 50f
7:18pm 37 45 mph 1012.5mb 52f 50f
7:12pm 39 47 mph 1012.7mb 52f 50f
7:06pm 37 45 mph 1012.9mb 52f 50f
7:00pm 36 41 mph 1013.1mb 52f 49f
6:54pm 33 41 mph 1013.3mb 52f 49f
6:48pm 32 44 mph 1013.5mb 52f 49f
6:42pm 37 43 mph 1013.5mb 52f 49f
6:36pm 38 46 mph 1013.6mb 52f 49f
6:30pm 34 45 mph 1013.7mb 52f 49f
6:24pm 39 44 mph 1013.7mb 52f 49f
6:18pm 40 46 mph 1013.9mb 52f 49f
6:12pm 34 44 mph 1014.1mb 52f 49f
6:06pm 38 44 mph 1014.1mb 52f 49f
6:00pm 33 44 mph 1014.3mb 52f 50f
5:54pm 34 46 mph 1014.5mb 52f 50f
5:48pm 37 47 mph 1014.2mb 52f 50f
5:42pm 37 43 mph 1014.3mb 52f 49f
5:36pm 36 41 mph 1014.4mb 52f 50f
5:30pm 36 46 mph 1014.7mb 52f 50f
5:24pm 34 44 mph 1014.7mb 52f 50f
5:18pm 33 41 mph 1014.7mb 52f 50f
5:12pm 34 40 mph 1014.8mb 52f 50f
5:06pm 34 40 mph 1014.7mb 52f 50f
5:00pm 30 39 mph 1014.7mb 52f 50f
4:54pm 32 39 mph 1014.8mb 52f 50f
4:48pm 31 37 mph 1014.9mb 52f 50f
4:42pm 33 43 mph 1015.2mb 52f 50f
4:36pm 34 45 mph 1015.4mb 52f 50f
4:30pm 38 46 mph 1015.5mb 52f 51f
4:24pm 36 45 mph 1015.6mb 52f 51f
4:18pm 33 44 mph 1015.6mb 52f 51f
4:12pm 37 44 mph 1015.5mb 52f 51f
4:06pm 36 44 mph 1015.4mb 52f 51f
4:00pm 37 43 mph 1015.5mb 52f 52f
3:54pm 34 48 mph 1015.4mb 52f 52f
3:48pm 38 46 mph 1015.2mb 52f 53f
3:42pm 37 45 mph 1015.3mb 52f 53f
3:36pm 33 44 mph 1015.4mb 52f 52f
3:30pm 37 46 mph 1015.4mb 52f 53f
3:24pm 33 44 mph 1015.5mb 52f 52f
3:18pm 41 55 mph 1015.5mb 52f 53f
3:12pm 36 44 mph 1015.6mb 52f 52f
3:06pm 33 41 mph 1015.7mb 52f 52f
3:00pm 32 44 mph 1015.7mb 52f 52f
2:54pm 37 44 mph 1015.7mb 52f 51f
2:48pm 37 47 mph 1015.7mb 52f 51f
2:42pm 36 43 mph 1015.8mb 52f 52f
2:36pm 34 43 mph 1015.9mb 52f 52f
2:30pm 33 39 mph 1015.9mb 52f 52f
2:24pm 30 34 mph 1016.1mb 52f 52f
2:18pm 24 31 mph 1016.3mb 52f 53f
2:12pm 26 34 mph 1016.4mb 52f 52f
2:06pm 32 36 mph 1016.3mb 52f 52f
2:00pm 31 39 mph 1016.3mb 52f 51f
1:54pm 36 44 mph 1016.3mb 52f 51f
1:48pm 33 43 mph 1016.3mb 52f 51f
1:42pm 31 43 mph 1016.5mb 52f 51f
1:36pm 36 43 mph 1016.6mb 52f 51f
1:30pm 31 41 mph 1016.7mb 52f 51f
1:24pm 34 45 mph 1016.8mb 52f 51f
1:18pm 38 45 mph 1016.9mb 52f 51f
1:12pm 36 41 mph 1016.8mb 52f 51f
1:06pm 34 45 mph 1016.8mb 52f 51f
1:00pm 37 44 mph 1016.8mb 52f 51f
12:54pm 38 44 mph 1016.8mb 52f 51f
12:48pm 38 44 mph 1016.8mb 52f 51f
12:42pm 33 38 mph 1017mb 52f 51f
12:36pm 30 37 mph 1017mb 52f 51f
12:30pm 30 38 mph 1017.1mb 52f 51f
12:24pm 32 38 mph 1017.1mb 52f 51f
12:18pm 31 36 mph 1017.3mb 52f 51f
12:12pm 28 34 mph 1017.4mb 52f 51f
12:06pm 29 40 mph 1017.7mb 52f 51f
12:00pm 34 39 mph 1017.6mb 52f 51f
11:54am 33 40 mph 1017.8mb 52f 51f
11:48am 36 40 mph 1017.6mb 52f 51f
11:42am 34 40 mph 1017.7mb 52f 51f
11:36am 31 38 mph 1017.8mb 52f 51f
11:30am 32 39 mph 1017.8mb 52f 51f
11:24am 33 39 mph 1017.9mb 52f 51f
11:18am 31 37 mph 1018mb 52f 51f
11:12am 28 34 mph 1018mb 52f 51f
11:06am 29 34 mph 1017.9mb 52f 51f
11:00am 29 34 mph 1018mb 52f 51f
10:54am 28 33 mph 1018.1mb 52f 51f
10:48am 28 32 mph 1018.1mb 52f 51f
10:42am 24 30 mph 1018.2mb 52f 51f
10:36am 22 26 mph 1018.2mb 52f 50f
10:30am 20 25 mph 1018.4mb 52f 50f
10:24am 18 22 mph 1018.6mb 52f 50f
10:18am 16 23 mph 1018.6mb 52f 50f
10:12am 21 24 mph 1018.5mb 52f 50f
10:06am 18 22 mph 1018.5mb 52f 50f
10:00am 20 22 mph 1018.5mb 52f 50f
9:54am 20 24 mph 1018.4mb 52f 50f
9:48am 18 22 mph 1018.5mb 52f 50f
9:42am 17 22 mph 1018.6mb 52f 50f
9:36am 18 23 mph 1018.7mb 52f 50f
9:30am 18 22 mph 1018.8mb 51f 50f
9:24am 18 22 mph 1018.9mb 51f 50f
9:18am 18 23 mph 1018.9mb 51f 50f
9:12am 17 22 mph 1018.8mb 51f 50f
9:06am 17 23 mph 1018.8mb 51f 49f
9:00am 18 23 mph 1018.9mb 51f 49f
8:54am 18 22 mph 1019.1mb 51f 49f
8:48am 20 23 mph 1019.2mb 51f 49f
8:42am 18 23 mph 1019.2mb 51f 49f
8:36am 17 24 mph 1019.2mb 51f 49f
8:30am 16 22 mph 1019.2mb 51f 49f
8:24am 20 24 mph 1019.2mb 51f 49f
8:18am 17 23 mph 1019.2mb 51f 49f
8:12am 16 22 mph 1019.3mb 51f 49f
8:06am 16 21 mph 1019.4mb 51f 49f
8:00am 15 22 mph 1019.4mb 52f 49f
7:54am 17 22 mph 1019.4mb 51f 49f
7:48am 15 21 mph 1019.6mb 51f 49f
7:42am 16 20 mph 1019.8mb 51f 49f
7:36am 16 20 mph 1019.7mb 51f 49f
7:30am 17 21 mph 1019.6mb 52f 49f
7:24am 17 22 mph 1019.5mb 52f 49f
7:18am 16 22 mph 1019.5mb 52f 49f
7:12am 16 21 mph 1019.5mb 51f 49f
7:06am 14 18 mph 1019.6mb 51f 49f
7:00am 14 20 mph 1019.7mb 52f 49f
6:54am 15 18 mph 1019.8mb 52f 49f
6:48am 14 17 mph 1019.7mb 52f 49f
6:42am 14 18 mph 1019.8mb 52f 49f
6:36am 15 17 mph 1020mb 52f 49f
6:30am 15 18 mph 1020.1mb 52f 49f
6:24am 13 20 mph 1020.3mb 52f 49f
6:18am 14 17 mph 1020.4mb 52f 49f
6:12am 14 17 mph 1020.4mb 52f 49f
6:06am 14 16 mph 1020.4mb 52f 49f
6:00am 11 18 mph 1020.2mb 52f 49f
5:54am 11 18 mph 1020.3mb 52f 49f
5:48am 13 16 mph 1020.4mb 52f 49f
5:42am 13 16 mph 1020.4mb 52f 49f
5:36am 14 17 mph 1020.3mb 52f 49f
5:30am 14 17 mph 1020.4mb 52f 49f
5:24am 13 17 mph 1020.3mb 52f 49f
5:18am 13 15 mph 1020.3mb 52f 49f
5:12am 13 17 mph 1020.4mb 52f 49f
5:06am 13 16 mph 1020.4mb 52f 49f
5:00am 11 16 mph 1020.5mb 52f 49f
4:54am 11 15 mph 1020.5mb 52f 48f
4:48am 10 16 mph 1020.5mb 52f 48f
4:42am 11 15 mph 1020.5mb 52f 48f
4:36am 11 15 mph 1020.5mb 52f 49f
4:30am 11 14 mph 1020.5mb 52f 49f
4:24am 11 15 mph 1020.6mb 52f 49f
4:18am 10 14 mph 1020.5mb 52f 48f
4:12am 10 14 mph 1020.5mb 52f 48f
4:06am 6 8 mph 1020.6mb 52f 46f
4:00am 6 8 mph 1020.6mb 52f 46f
3:54am 6 7 mph 1020.6mb 52f 47f
3:48am 6 8 mph 1020.7mb 52f 47f
3:42am 5 7 mph 1020.9mb 52f 46f
3:36am 3 6 mph 1020.9mb 52f 46f
3:30am 3 6 mph 1020.9mb 52f 46f
3:24am 5 6 mph 1020.9mb 52f 46f
3:18am 6 7 mph 1020.9mb 52f 46f
3:12am 6 8 mph 1020.9mb 52f 46f
3:06am 6 7 mph 1020.9mb 52f 46f
3:00am 6 8 mph 1021mb 52f 46f
2:54am 6 8 mph 1020.9mb 52f 46f
2:48am 7 9 mph 1020.9mb 52f 46f
2:42am 3 7 mph 1021.1mb 52f 45f
2:36am 1 5 mph 1021.3mb 52f 45f
2:30am 2 6 mph 1021.3mb 52f 45f
2:24am 5 6 mph 1021.3mb 52f 46f
2:18am 5 7 mph 1021.2mb 52f 46f
2:12am 6 7 mph 1021.2mb 52f 46f
2:06am 2 5 mph 1021.3mb 52f 44f
2:00am 2 3 mph 1021.4mb 52f 44f
1:54am 2 3 mph 1021.6mb 52f 44f
1:48am 2 3 mph 1021.7mb 52f 44f
1:42am 2 3 mph 1021.8mb 52f 44f
1:36am 2 3 mph 1021.8mb 52f 44f
1:30am 2 3 mph 1021.8mb 52f 44f
1:24am 2 3 mph 1021.9mb 52f 44f
1:18am 2 3 mph 1022mb 52f 44f
1:12am 2 3 mph 1022mb 52f 44f
1:06am 3
mph
1022mb 52f 44f
1:00am 2 3 mph 1022.1mb 52f 44f
12:54am 2
mph
1022.1mb 52f 44f
12:48am 2 3 mph 1022mb 52f 44f
12:42am 2 3 mph 1022mb 52f 44f
12:36am 2 3 mph 1022mb 52f 44f
12:30am 2
mph
1022mb 52f 44f
12:24am 2 3 mph 1022mb 52f 44f
12:18am 2
mph
1021.9mb 52f 45f
12:12am 1 2 mph 1021.9mb 53f 45f
12:06am 2
mph
1021.9mb 53f 45f
12:00am 1 2 mph 1021.9mb 53f 46f
Wed 03/22 11:54pm 1
mph
1021.8mb 53f 46f
11:48pm  -  2 mph 1021.8mb 53f -
11:42pm 2
mph
1021.8mb 53f -
11:36pm 2 3 mph 1021.9mb 53f -
11:30pm 2
mph
1021.9mb 53f 46f
11:24pm 2 3 mph 1021.9mb 53f 46f
11:18pm 2 3 mph 1021.9mb 53f 46f
11:12pm 2 3 mph 1022mb 53f 46f
11:06pm 2 3 mph 1022.1mb 53f 46f
11:00pm 2 3 mph 1022.1mb 53f 46f
10:54pm 2 3 mph 1022mb 53f 46f
10:48pm 2 3 mph 1022mb 53f -
10:42pm 3
mph
1021.9mb 53f -
10:36pm 2
mph
1021.9mb 53f -
10:30pm 2 3 mph 1021.9mb 53f 46f
10:24pm 3
mph
1021.8mb 53f 46f
10:18pm 2
mph
1021.8mb 53f 46f
10:12pm 3
mph
1022mb 53f 46f
10:06pm 1 2 mph 1021.9mb 53f 46f
10:00pm 2 3 mph 1021.8mb 53f 46f
9:54pm 2 5 mph 1021.8mb 53f 46f
9:48pm 3
mph
1021.9mb 53f 46f
9:42pm 3
mph
1021.9mb 53f 47f
9:36pm 2 3 mph 1021.9mb 53f 46f
9:30pm 1 3 mph 1022mb 53f 46f
9:24pm 5
mph
1021.8mb 53f 46f
9:18pm 3 5 mph 1021.8mb 53f 46f
9:12pm 3 5 mph 1021.9mb 53f 46f
9:06pm 1 3 mph 1021.8mb 53f 46f
9:00pm 2 3 mph 1021.8mb 53f 46f
8:54pm 2 3 mph 1021.7mb 53f 47f
8:48pm 2
mph
1021.6mb 53f 46f
8:42pm 2
mph
1021.5mb 53f 46f
8:36pm 2 3 mph 1021.5mb 53f 46f
8:30pm 2 5 mph 1021.4mb 53f 47f
8:24pm 1 3 mph 1021.4mb 53f 47f
8:18pm 2 3 mph 1021.2mb 53f 48f
8:12pm 1 2 mph 1021.2mb 53f 49f
8:06pm 1 3 mph 1021.2mb 53f 49f
8:00pm 2
mph
1021.2mb 53f 49f
7:54pm 2 3 mph 1021.2mb 53f 50f
7:48pm 1 2 mph 1021.1mb 53f 49f
7:42pm 2 3 mph 1021.1mb 53f 49f
7:36pm 1 2 mph 1021mb 53f 49f
7:30pm 1 2 mph 1020.9mb 53f 50f
7:24pm 1 2 mph 1020.8mb 53f 50f
7:18pm 2
mph
1020.8mb 53f 50f
7:12pm 2 3 mph 1020.9mb 53f 50f
7:06pm 2 3 mph 1020.8mb 53f 50f
7:00pm 3
mph
1020.8mb 53f 50f
6:54pm 2
mph
1020.8mb 53f 51f
6:48pm 1 3 mph 1020.8mb 53f 51f
6:42pm 1 3 mph 1020.7mb 53f 51f
6:36pm 2 5 mph 1020.7mb 53f 51f
6:30pm 2 6 mph 1020.7mb 53f 51f
6:24pm 3 6 mph 1020.7mb 53f 51f
6:18pm 2 7 mph 1020.7mb 53f 51f
6:12pm 6 7 mph 1020.6mb 53f 51f
6:06pm 5 8 mph 1020.6mb 53f 51f
6:00pm 5 8 mph 1020.5mb 53f 51f
5:54pm 3 6 mph 1020.4mb 53f 52f
5:48pm 2 5 mph 1020.3mb 53f 52f
5:42pm 3 6 mph 1020.3mb 53f 52f
5:36pm 2 6 mph 1020.3mb 53f 51f
5:30pm 6 8 mph 1020.3mb 53f 51f
5:24pm 3 8 mph 1020.3mb 53f 51f
5:18pm 6 9 mph 1020.3mb 53f 51f
5:12pm 2 7 mph 1020.2mb 53f 51f
5:06pm 3 7 mph 1020.2mb 53f 51f
5:00pm 5 9 mph 1020.2mb 53f 51f
4:54pm  -  8 mph 1020.2mb 53f 51f
4:48pm 5 11 mph 1020.1mb 53f 51f
4:42pm 3 8 mph 1020.1mb 53f 51f
4:36pm 3 8 mph 1020.1mb 53f 51f
4:30pm 3 8 mph 1020mb 53f 51f
4:24pm 6 9 mph 1020mb 53f 51f
4:18pm 6 8 mph 1019.9mb 53f 51f
4:12pm 5 9 mph 1020mb 53f 51f
4:06pm 6 9 mph 1019.9mb 53f 51f
4:00pm 6 10 mph 1019.9mb 53f 51f
3:54pm 5 8 mph 1019.8mb 53f 51f
3:48pm  -  6 mph 1019.8mb 53f 51f
3:42pm 3 10 mph 1019.8mb 53f 50f
3:36pm 6 13 mph 1019.8mb 53f 49f
3:30pm 6 10 mph 1019.8mb 53f 50f
3:24pm 7 9 mph 1019.7mb 53f 50f
3:18pm 7 9 mph 1019.7mb 53f 49f
3:12pm 7 8 mph 1019.7mb 53f 49f
3:06pm 7 8 mph 1019.7mb 53f 49f
3:00pm 7 9 mph 1019.6mb 53f 49f
2:54pm 7 9 mph 1019.6mb 53f 49f
2:48pm 6 7 mph 1019.6mb 53f 49f
2:42pm 6 8 mph 1019.6mb 53f 49f
2:36pm 7 8 mph 1019.6mb 53f 49f
2:30pm 6 8 mph 1019.6mb 53f 49f
2:24pm 7 9 mph 1019.6mb 53f 49f
2:18pm 7 8 mph 1019.6mb 53f 49f
2:12pm 7 9 mph 1019.6mb 53f 49f
2:06pm 7 9 mph 1019.6mb 53f 49f
2:00pm 3 6 mph 1019.6mb 53f 49f
1:54pm 5 6 mph 1019.5mb 53f 49f
1:48pm 5 6 mph - 53f 48f
1:42pm 3 6 mph - 53f 48f
1:36pm 3 6 mph - 53f 48f
1:30pm 3 6 mph 1019.4mb 53f 48f
1:24pm 5 7 mph 1019.4mb 53f 47f
1:18pm 6 7 mph 1019.4mb 53f 47f
1:12pm 6 7 mph 1019.4mb 53f 47f
1:06pm 5 6 mph 1019.3mb 53f 47f
1:00pm 5 6 mph 1019.3mb 52f 47f
12:54pm 3 6 mph 1019.2mb 52f 47f
12:48pm 6 7 mph 1019.2mb 52f 47f
12:42pm 5 7 mph 1019.2mb 52f 47f
12:36pm 6 7 mph 1019.1mb 52f 47f
12:30pm 6 9 mph 1019mb 52f 47f
12:24pm 7 11 mph 1018.9mb 52f 47f
12:18pm 9 13 mph 1018.7mb 52f 47f
12:12pm 11 15 mph 1018.6mb 52f 48f
12:06pm 14 17 mph 1018.6mb 52f 47f
12:00pm 14 18 mph 1018.5mb 52f 47f
11:54am 13 17 mph 1018.5mb 52f 47f
11:48am 14 18 mph 1018.4mb 52f 47f
11:42am 14 17 mph 1018.4mb 52f 47f
11:36am 10 15 mph 1018.4mb 52f 47f
11:30am 14 15 mph 1018.3mb 52f 47f
11:24am 10 14 mph 1018.1mb 52f 47f
11:18am 9 13 mph 1018mb 52f 48f
11:12am 3 9 mph 1018mb 52f 48f
11:06am 8 10 mph 1017.9mb 52f 48f
11:00am 5 6 mph 1017.7mb 52f 49f
10:54am 2 6 mph 1017.6mb 52f 49f
10:48am 3 6 mph 1017.5mb 52f 49f
10:42am 3 7 mph 1017.5mb 52f 49f
10:36am 3 8 mph 1017.4mb 52f 49f
10:30am 5 8 mph 1017.3mb 52f 49f
10:24am 3 6 mph 1017.2mb 52f 49f
10:18am 2 7 mph 1017mb 52f 49f
10:12am 5 10 mph 1016.8mb 52f 49f
10:06am 6 7 mph 1016.7mb 52f 49f
10:00am 3 5 mph 1016.6mb 52f 49f
9:54am 5 6 mph 1016.5mb 52f 49f
9:48am 5 6 mph 1016.5mb 52f 49f
9:42am 5 9 mph 1016.4mb 52f 49f
9:36am 6 11 mph 1016.3mb 52f 49f
9:30am 7 10 mph 1016.1mb 52f 49f
9:24am 3 10 mph 1016mb 52f 48f
9:18am 6 14 mph 1015.9mb 52f 49f
9:12am 6 13 mph 1015.7mb 52f 49f
9:06am 9 17 mph 1015.6mb 52f 48f
9:00am 8 17 mph 1015.6mb 52f 49f
8:54am 9 16 mph 1015.4mb 53f 48f
8:48am 16 18 mph 1015.3mb 53f 49f
8:42am 13 14 mph 1015.2mb 53f 49f
8:36am 14 17 mph 1015.1mb 53f 49f
8:30am 15 16 mph 1015mb 53f 49f
8:24am 13 16 mph 1014.9mb 53f 49f
8:18am 14 17 mph 1014.8mb 53f 49f
8:12am 15 18 mph 1014.7mb 53f 49f
8:06am 16 20 mph 1014.6mb 53f 49f
8:00am 15 18 mph 1014.5mb 53f 48f
7:54am 14 17 mph 1014.4mb 53f 48f
7:48am 17 21 mph 1014.3mb 53f 47f
7:42am 13 21 mph 1014.3mb 53f 47f
7:36am 17 23 mph 1014.2mb 53f 47f
7:30am 20 23 mph 1013.8mb 53f 48f
7:24am 20 26 mph 1013.7mb 53f 48f
7:18am 24 31 mph 1013.5mb 53f 47f
7:12am 25 30 mph 1013.3mb 53f 50f
7:06am 25 28 mph 1013.2mb 53f 50f
7:00am 24 29 mph 1013.1mb 53f 50f
6:54am 25 31 mph 1013.1mb 53f 50f
6:48am 25 29 mph 1013mb 53f 51f
6:42am 25 28 mph 1013.1mb 53f 51f
6:36am 24 29 mph 1013.1mb 53f 51f
6:30am 25 30 mph 1013mb 53f 51f
6:24am 24 29 mph 1013mb 53f 51f
6:18am 24 29 mph 1012.9mb 53f 51f
6:12am 24 28 mph 1012.9mb 53f 51f
6:06am 25 28 mph 1012.9mb 53f 51f
6:00am 26 30 mph 1012.7mb 53f 51f
5:54am 23 28 mph 1012.8mb 53f 51f
5:48am 23 29 mph 1012.6mb 53f 51f
5:42am 23 28 mph 1012.6mb 53f 51f
5:36am 23 29 mph 1012.5mb 53f 51f
5:30am 25 29 mph 1012.4mb 53f 51f
5:24am 24 29 mph 1012.3mb 53f 50f
5:18am 26 29 mph 1012.2mb 53f 51f
5:12am 28 30 mph 1012.1mb 53f 50f
5:06am 26 30 mph 1012mb 53f 51f
5:00am 26 30 mph 1012mb 53f 51f
4:54am 26 30 mph 1012mb 53f 51f
4:48am 25 29 mph 1011.9mb 53f 51f
4:42am 28 30 mph 1011.8mb 53f 51f
4:36am 26 31 mph 1011.8mb 53f 51f
4:30am 29 32 mph 1011.6mb 53f 51f
4:24am 29 32 mph 1011.5mb 53f 51f
4:18am 26 30 mph 1011.5mb 53f 51f
4:12am 24 29 mph 1011.5mb 53f 51f
4:06am 24 30 mph 1011.4mb 53f 51f
4:00am 24 29 mph 1011.3mb 53f 51f
3:54am 28 30 mph 1011.3mb 53f 51f
3:48am 26 31 mph 1011.2mb 53f 51f
3:42am 25 31 mph 1011.1mb 53f 51f
3:36am 29 32 mph 1011mb 53f 51f
3:30am 28 31 mph 1011mb 53f 51f
3:24am 25 29 mph 1011mb 53f 51f
3:18am 24 29 mph 1011mb 53f 51f
3:12am 25 31 mph 1010.9mb 53f 51f
3:06am 26 31 mph 1010.8mb 53f 51f
3:00am 26 31 mph 1010.8mb 53f 51f
2:54am 28 30 mph 1010.7mb 53f 51f
2:48am 26 29 mph 1010.7mb 53f 51f
2:42am 25 29 mph 1010.7mb 53f 51f
2:36am 26 30 mph 1010.6mb 53f 51f
2:30am 26 30 mph 1010.5mb 53f 51f
2:24am 25 29 mph 1010.5mb 53f 51f
2:18am 29 31 mph 1010.4mb 53f 51f
2:12am 26 31 mph 1010.3mb 53f 51f
2:06am 29 32 mph 1010.2mb 53f 51f
2:00am 28 31 mph 1010.2mb 53f 51f
1:54am 26 31 mph 1010.2mb 53f 51f
1:48am 28 31 mph 1010.2mb 53f 51f
1:42am 28 30 mph 1010.3mb 53f 51f
1:36am 28 31 mph 1010.2mb 53f 51f
1:30am 25 30 mph 1010.1mb 53f 51f
1:24am 28 32 mph 1010.1mb 53f 51f
1:18am 25 30 mph 1009.9mb 53f 51f
1:12am 28 32 mph 1009.9mb 53f 51f
1:06am 29 32 mph 1009.8mb 53f 50f
1:00am 25 30 mph 1009.8mb 53f 48f
12:54am 26 32 mph 1009.8mb 53f 49f
12:48am 29 31 mph 1009.8mb 53f 51f
12:42am 24 29 mph 1009.8mb 53f 52f
12:36am 25 30 mph 1009.8mb 53f 52f
12:30am 26 30 mph 1009.8mb 53f 52f
12:24am 26 30 mph 1009.8mb 53f 52f
12:18am 24 31 mph 1009.8mb 53f 52f
12:12am 22 29 mph 1009.8mb 53f 52f
12:06am 26 29 mph 1009.8mb 53f 52f
12:00am 22 26 mph 1009.8mb 53f 52f
Tue 03/21 11:54pm 23 28 mph 1009.8mb 53f 52f
11:48pm 23 28 mph 1009.7mb 53f -
11:42pm 23 28 mph 1009.5mb 53f -
11:36pm 25 28 mph 1009.4mb 53f -
11:30pm 23 28 mph 1009.3mb 53f 52f
11:24pm 25 28 mph 1009.2mb 53f 52f
11:18pm 24 28 mph 1009.2mb 53f 52f
11:12pm 23 28 mph 1009.2mb 53f 52f
11:06pm 26 31 mph 1009mb 53f 52f
11:00pm 28 30 mph 1009mb 53f 52f
10:54pm 26 30 mph 1008.9mb 53f 52f
10:48pm 24 31 mph - - -
10:42pm 25 29 mph - - -
10:36pm 25 30 mph - - -
10:30pm 26 31 mph 1008.8mb 53f 52f
10:24pm 26 31 mph 1008.7mb 53f 52f
10:18pm 28 30 mph 1008.6mb 53f 52f
10:12pm 26 30 mph 1008.6mb 53f 52f
10:06pm 25 31 mph 1008.5mb 53f 52f
10:00pm 25 30 mph 1008.4mb 53f 52f
9:54pm 24 26 mph 1008.4mb 53f 52f
9:48pm 23 26 mph 1008.3mb 53f 52f
9:42pm 25 29 mph 1008.3mb 53f 52f
9:36pm 23 29 mph 1008.2mb 53f 52f
9:30pm 25 29 mph 1008.1mb 53f 52f
9:24pm 24 30 mph 1008.1mb 53f 52f
9:18pm 25 31 mph 1008mb 53f 51f
9:12pm 28 43 mph 1007.9mb 53f 51f
9:06pm 25 33 mph 1007.7mb 53f 52f
9:00pm 26 36 mph 1007.7mb 53f 53f
8:54pm 30 36 mph 1007.5mb 53f 53f
8:48pm 29 37 mph 1007.5mb 53f 53f
8:42pm 30 34 mph 1007.4mb 53f 53f
8:36pm 31 36 mph 1007.3mb 53f 53f
8:30pm 32 37 mph 1007.2mb 53f 53f
8:24pm 30 38 mph 1007mb 53f 53f
8:18pm 30 38 mph 1006.8mb 53f 53f
8:12pm 30 36 mph 1006.6mb 53f 53f
8:06pm 31 36 mph 1006.5mb 53f 53f
8:00pm 29 37 mph 1006.4mb 53f 53f
7:54pm 32 39 mph 1006.2mb 53f 53f
7:48pm 33 41 mph 1006.1mb 53f 53f
7:42pm 32 44 mph 1006mb 53f 53f
7:36pm 34 45 mph 1006.1mb 53f 53f
7:30pm 38 45 mph 1006mb 53f 53f
7:24pm 37 47 mph 1006mb 53f 54f
7:18pm 36 43 mph 1006mb 53f 54f
7:12pm 34 43 mph 1005.9mb 53f 54f
7:06pm 37 43 mph 1005.8mb 53f 55f
7:00pm 36 44 mph 1005.8mb 53f 55f
6:54pm 38 45 mph 1005.8mb 54f 55f
6:48pm 36 43 mph 1005.8mb 54f 55f
6:42pm 36 41 mph 1005.9mb 54f 55f
6:36pm 34 40 mph 1005.9mb 54f 55f
6:30pm 31 43 mph 1006mb 54f 55f
6:24pm 32 40 mph 1006mb 54f 55f
6:18pm 33 40 mph 1006mb 54f 55f
6:12pm 32 43 mph 1006.1mb 54f 55f
6:06pm 33 39 mph 1006.1mb 54f 55f
6:00pm 30 39 mph 1006.3mb 54f 54f
5:54pm 31 37 mph 1006.4mb 54f 54f
5:48pm 30 39 mph 1006.4mb 54f 54f
5:42pm 30 38 mph 1006.3mb 54f 54f
5:36pm 29 37 mph 1006.3mb 54f 54f
5:30pm 30 36 mph 1006.3mb 54f 54f
5:24pm 21 30 mph 1006.3mb 54f 53f
5:18pm 24 28 mph 1006.4mb 54f 53f
5:12pm 25 30 mph 1006.5mb 54f 53f
5:06pm 28 31 mph 1006.5mb 54f 53f
5:00pm 26 32 mph 1006.6mb 54f 54f
4:54pm 25 31 mph 1006.6mb 54f 54f
4:48pm 26 32 mph 1006.6mb 54f 54f
4:42pm 25 31 mph 1006.6mb 54f 54f
4:36pm 25 31 mph 1006.6mb 54f 54f
4:30pm 26 34 mph 1006.6mb 54f 54f
4:24pm 25 33 mph 1006.8mb 54f 53f
4:18pm 29 34 mph 1006.8mb 54f 53f
4:12pm 29 36 mph 1006.8mb 54f 54f
4:06pm 31 37 mph 1006.7mb 54f 53f
4:00pm 25 34 mph 1006.8mb 54f 53f
3:54pm 29 37 mph 1006.7mb 54f 53f
3:48pm 31 38 mph 1006.7mb 53f 53f
3:42pm 32 38 mph 1006.7mb 53f 53f
3:36pm 34 40 mph 1006.5mb 54f 53f
3:30pm 31 37 mph 1006.8mb 54f 54f
3:24pm 29 34 mph 1006.7mb 54f 54f
3:18pm 29 40 mph 1006.6mb 54f 54f
3:12pm 30 44 mph 1006.5mb 54f 54f
3:06pm 25 30 mph 1006.7mb 54f 54f
3:00pm 23 28 mph 1006.5mb 54f 54f
2:54pm 23 30 mph 1006.4mb 54f 54f
2:48pm 24 31 mph 1006.5mb 54f 54f
2:42pm 24 31 mph 1006.5mb 54f 54f
2:36pm 25 30 mph 1006.5mb 54f 54f
2:30pm 28 31 mph 1006.6mb 54f 54f
2:24pm 29 33 mph 1006.6mb 54f 55f
2:18pm 25 31 mph 1006.7mb 54f 55f
2:12pm 25 33 mph 1006.6mb 54f 55f
2:06pm 30 36 mph 1006.6mb 54f 55f
2:00pm 28 34 mph 1006.6mb 54f 55f
1:54pm 29 33 mph 1006.5mb 54f 55f
1:48pm 26 32 mph 1006.5mb 54f 55f
1:42pm 28 31 mph 1006.5mb 54f 55f
1:36pm 29 32 mph 1006.4mb 54f 55f
1:30pm 28 31 mph 1006.4mb 54f 55f
1:24pm 23 28 mph 1006.5mb 54f 55f
1:18pm 24 29 mph 1006.5mb 54f 55f
1:12pm 25 29 mph 1006.5mb 54f 54f
1:06pm 28 32 mph 1006.6mb 54f 54f
1:00pm 28 32 mph 1006.5mb 54f 54f
12:54pm 29 34 mph 1006.5mb 54f 54f
12:48pm 26 31 mph 1006.5mb 54f 54f
12:42pm 26 31 mph 1006.5mb 54f 54f
12:36pm 26 31 mph 1006.5mb 54f 54f
12:30pm 25 30 mph 1006.5mb 54f 54f
12:24pm 29 34 mph 1006.5mb 54f 54f
12:18pm 28 37 mph 1006.6mb 54f 55f
12:12pm 29 36 mph 1006.6mb 54f 55f
12:06pm 28 33 mph 1006.6mb 54f 55f
12:00pm 25 30 mph 1006.7mb 54f 55f
11:54am 24 30 mph 1006.8mb 54f 55f
11:48am 23 31 mph 1006.8mb 54f 54f
11:42am 24 31 mph 1006.8mb 53f 54f
11:36am 26 33 mph 1006.8mb 53f 54f
11:30am 29 33 mph 1006.8mb 53f 54f
11:24am 28 34 mph 1006.8mb 53f 54f
11:18am 28 32 mph 1006.9mb 53f 54f
11:12am 26 30 mph 1006.9mb 53f 54f
11:06am 26 33 mph 1007mb 53f 54f
11:00am 26 33 mph 1007mb 53f 54f
10:54am 26 32 mph 1007mb 53f 53f
10:48am 26 34 mph 1007mb 53f 53f
10:42am 25 32 mph 1007mb 53f 53f
10:36am 28 32 mph 1006.9mb 53f 53f
10:30am 26 31 mph 1006.9mb 53f 53f
10:24am 28 33 mph 1007mb 53f 53f
10:18am 25 29 mph 1006.9mb 53f 53f
10:12am 28 30 mph 1006.9mb 53f 53f
10:06am 26 32 mph 1006.9mb 53f 53f
10:00am 26 32 mph 1006.8mb 53f 53f
9:54am 25 32 mph 1006.8mb 53f 53f
9:48am 26 34 mph 1006.7mb 53f 53f
9:42am 25 31 mph 1006.7mb 53f 53f
9:36am 25 32 mph 1006.7mb 53f 53f
9:30am 29 32 mph 1006.6mb 53f 53f
9:24am 26 32 mph 1006.6mb 53f 53f
9:18am 28 31 mph 1006.5mb 53f 53f
9:12am 29 33 mph 1006.5mb 53f 53f
9:06am 29 33 mph 1006.5mb 53f 53f
9:00am 30 34 mph 1006.4mb 53f 53f
8:54am 28 31 mph 1006.4mb 53f 53f
8:48am 26 31 mph 1006.4mb 53f 53f
8:42am 28 33 mph 1006.4mb 53f 53f
8:36am 26 32 mph 1006.4mb 53f 53f
8:30am 26 33 mph 1006.5mb 53f 53f
8:24am 26 32 mph 1006.4mb 53f 53f
8:18am 28 34 mph 1006.4mb 53f 54f
8:12am 28 33 mph 1006.5mb 53f 53f
8:06am 25 31 mph 1006.5mb 53f 53f
8:00am 25 30 mph 1006.5mb 53f 54f
7:54am 25 33 mph 1006.5mb 53f 53f
7:48am 26 33 mph 1006.5mb 53f 54f
7:42am 28 33 mph 1006.5mb 53f 54f
7:36am 26 32 mph 1006.4mb 53f 54f
7:30am 26 34 mph 1006.4mb 53f 54f
7:24am 25 32 mph 1006.4mb 53f 54f
7:18am 23 28 mph 1006.4mb 53f 54f
7:12am 23 28 mph 1006.3mb 53f 54f
7:06am 24 30 mph 1006.4mb 53f 54f
7:00am 24 29 mph 1006.4mb 53f 54f
6:54am 25 31 mph 1006.4mb 53f 54f
6:48am 26 31 mph 1006.3mb 53f 54f
6:42am 24 30 mph 1006.2mb 53f 54f
6:36am 25 32 mph 1005.9mb 53f 54f
6:30am 26 30 mph 1005.8mb 53f 54f
6:24am 26 32 mph 1005.9mb 53f 54f
6:18am 29 32 mph 1005.9mb 53f 54f
6:12am 25 31 mph 1005.8mb 53f 54f
6:06am 23 29 mph 1005.7mb 53f 54f
6:00am 25 30 mph 1005.6mb 53f 54f
5:54am 25 31 mph 1005.7mb 53f 54f
5:48am 25 30 mph 1005.9mb 53f 54f
5:42am 23 30 mph 1005.8mb 53f 54f
5:36am 24 29 mph 1005.6mb 53f 53f
5:30am 25 30 mph 1005.6mb 53f 53f
5:24am 24 29 mph 1005.5mb 53f 53f
5:18am 24 30 mph 1005.4mb 53f 53f
5:12am 24 33 mph 1005.4mb 53f 53f
5:06am 22 33 mph 1005.3mb 53f 54f
5:00am 28 32 mph 1005.1mb 53f 54f
4:54am 26 31 mph 1005.2mb 53f 54f
4:48am 31 38 mph 1005.1mb 53f 54f
4:42am 31 34 mph 1005.1mb 53f 55f
4:36am 29 36 mph 1004.9mb 53f 54f
4:30am 31 37 mph 1004.9mb 53f 54f
4:24am 24 30 mph 1004.7mb 53f 55f
4:18am 23 28 mph 1004.7mb 53f 56f
4:12am 22 26 mph 1004.8mb 53f 56f
4:06am 21 26 mph 1004.8mb 53f 56f
4:00am 22 26 mph 1004.8mb 53f 56f
3:54am 23 31 mph 1004.8mb 53f 56f
3:48am 15 21 mph 1004.9mb 53f 55f
3:42am 14 18 mph 1005mb 53f 54f
3:36am 14 18 mph 1005.1mb 53f 54f
3:30am 17 20 mph 1005mb 53f 54f
3:24am 15 17 mph 1005.1mb 53f 53f
3:18am 15 17 mph 1005.2mb 53f 53f
3:12am 13 18 mph 1005.2mb 53f 53f
3:06am 15 20 mph 1005.3mb 53f 53f
3:00am 15 21 mph 1005.2mb 53f 53f
2:54am 18 22 mph 1005.2mb 53f 53f
2:48am 20 26 mph 1005.3mb 53f 53f
2:42am 20 22 mph 1005.5mb 53f 53f
2:36am 16 21 mph 1005.6mb 53f 53f
2:30am 17 20 mph 1005.6mb 53f 53f
2:24am 11 15 mph 1005.4mb 53f 54f